createdAt,value
2018-02-02T00:00:07.061Z,993.77
2018-02-02T00:02:00.082Z,993.74
2018-02-02T00:02:59.970Z,993.74
2018-02-02T00:04:52.941Z,993.70
2018-02-02T00:05:52.896Z,993.70
2018-02-02T00:07:45.869Z,993.66
2018-02-02T00:08:45.799Z,993.58
2018-02-02T00:10:38.625Z,993.65
2018-02-02T00:11:38.569Z,993.61
2018-02-02T00:13:31.507Z,993.62
2018-02-02T00:14:31.484Z,993.61
2018-02-02T00:16:24.442Z,993.56
2018-02-02T00:17:24.439Z,993.57
2018-02-02T00:19:17.312Z,993.61
2018-02-02T00:20:17.268Z,993.55
2018-02-02T00:22:10.083Z,993.59
2018-02-02T00:23:10.041Z,993.59
2018-02-02T00:25:03.001Z,993.62
2018-02-02T00:26:02.955Z,993.60
2018-02-02T00:27:55.917Z,993.60
2018-02-02T00:28:55.857Z,993.55
2018-02-02T00:30:48.806Z,993.58
2018-02-02T00:31:48.793Z,993.55
2018-02-02T00:33:41.577Z,993.51
2018-02-02T00:34:41.522Z,993.53
2018-02-02T00:36:34.511Z,993.55
2018-02-02T00:37:34.481Z,993.51
2018-02-02T00:39:27.426Z,993.55
2018-02-02T00:40:27.369Z,993.52
2018-02-02T00:42:20.319Z,993.47
2018-02-02T00:43:20.275Z,993.49
2018-02-02T00:45:13.127Z,993.47
2018-02-02T00:46:13.061Z,993.46
2018-02-02T00:48:06.023Z,993.46
2018-02-02T00:49:05.967Z,993.50
2018-02-02T00:50:58.921Z,993.48
2018-02-02T00:51:58.884Z,993.44
2018-02-02T00:53:51.856Z,993.50
2018-02-02T00:54:51.789Z,993.58
2018-02-02T00:56:44.595Z,993.52
2018-02-02T00:57:44.545Z,993.55
2018-02-02T00:59:37.522Z,993.55
2018-02-02T01:00:37.460Z,993.54
2018-02-02T01:02:30.267Z,993.52
2018-02-02T01:03:30.221Z,993.51
2018-02-02T01:05:23.191Z,993.51
2018-02-02T01:06:23.128Z,993.51
2018-02-02T01:08:16.274Z,993.50
2018-02-02T01:09:16.211Z,993.49
2018-02-02T01:11:09.172Z,993.50
2018-02-02T01:12:09.106Z,993.47
2018-02-02T01:14:02.117Z,993.50
2018-02-02T01:15:02.053Z,993.48
2018-02-02T01:16:55.133Z,993.47
2018-02-02T01:17:54.943Z,993.46
2018-02-02T01:19:47.872Z,993.45
2018-02-02T01:20:47.827Z,993.49
2018-02-02T01:22:40.798Z,993.45
2018-02-02T01:23:40.740Z,993.40
2018-02-02T01:25:33.975Z,993.42
2018-02-02T01:26:33.821Z,993.39
2018-02-02T01:28:26.661Z,993.38
2018-02-02T01:29:26.575Z,993.40
2018-02-02T01:31:19.386Z,993.40
2018-02-02T01:32:19.328Z,993.39
2018-02-02T01:34:12.268Z,993.36
2018-02-02T01:35:12.232Z,993.35
2018-02-02T01:37:05.526Z,993.35
2018-02-02T01:38:05.323Z,993.32
2018-02-02T01:39:58.152Z,993.33
2018-02-02T01:40:58.063Z,993.34
2018-02-02T01:42:51.116Z,993.33
2018-02-02T01:43:51.058Z,993.35
2018-02-02T01:45:43.995Z,993.36
2018-02-02T01:46:43.967Z,993.33
2018-02-02T01:48:36.770Z,993.35
2018-02-02T01:49:36.716Z,993.37
2018-02-02T01:51:29.656Z,993.34
2018-02-02T01:52:29.627Z,993.35
2018-02-02T01:54:22.610Z,993.29
2018-02-02T01:55:22.546Z,993.31
2018-02-02T01:57:15.527Z,993.30
2018-02-02T01:58:15.494Z,993.25
2018-02-02T02:00:08.395Z,993.31
2018-02-02T02:01:08.265Z,993.35
2018-02-02T02:03:01.238Z,993.29
2018-02-02T02:04:01.155Z,993.28
2018-02-02T02:05:53.958Z,993.20
2018-02-02T02:06:53.922Z,993.20
2018-02-02T02:08:46.888Z,993.18
2018-02-02T02:09:46.832Z,993.19
2018-02-02T02:11:39.672Z,993.21
2018-02-02T02:12:39.652Z,993.12
2018-02-02T02:14:32.622Z,993.14
2018-02-02T02:15:32.588Z,993.11
2018-02-02T02:17:25.526Z,993.16
2018-02-02T02:18:25.498Z,993.16
2018-02-02T02:20:18.689Z,993.08
2018-02-02T02:21:18.649Z,993.10
2018-02-02T02:23:11.583Z,993.06
2018-02-02T02:24:11.542Z,993.05
2018-02-02T02:26:04.522Z,993.03
2018-02-02T02:27:04.448Z,993.03
2018-02-02T02:28:57.647Z,993.01
2018-02-02T02:29:57.558Z,993.00
2018-02-02T02:31:50.362Z,993.02
2018-02-02T02:32:50.310Z,993.04
2018-02-02T02:34:43.290Z,993.03
2018-02-02T02:35:43.305Z,993.01
2018-02-02T02:37:36.050Z,992.99
2018-02-02T02:38:35.991Z,992.97
2018-02-02T02:40:29.157Z,992.99
2018-02-02T02:41:29.078Z,992.96
2018-02-02T02:43:22.041Z,993.01
2018-02-02T02:44:21.990Z,992.97
2018-02-02T02:46:15.365Z,992.97
2018-02-02T02:47:15.277Z,992.93
2018-02-02T02:49:08.258Z,992.91
2018-02-02T02:50:08.185Z,992.83
2018-02-02T02:52:01.128Z,992.82
2018-02-02T02:53:01.096Z,992.83
2018-02-02T02:54:53.923Z,992.80
2018-02-02T02:55:53.850Z,992.78
2018-02-02T02:57:46.858Z,992.76
2018-02-02T02:58:46.810Z,992.76
2018-02-02T03:00:39.766Z,992.77
2018-02-02T03:01:39.708Z,992.77
2018-02-02T03:03:32.690Z,992.79
2018-02-02T03:04:32.617Z,992.76
2018-02-02T03:06:25.414Z,992.76
2018-02-02T03:07:25.380Z,992.79
2018-02-02T03:09:18.347Z,992.75
2018-02-02T03:10:18.283Z,992.77
2018-02-02T03:12:11.233Z,992.78
2018-02-02T03:13:11.208Z,992.77
2018-02-02T03:15:04.165Z,992.76
2018-02-02T03:16:04.092Z,992.75
2018-02-02T03:17:56.898Z,992.74
2018-02-02T03:18:56.858Z,992.78
2018-02-02T03:20:49.838Z,992.81
2018-02-02T03:21:49.784Z,992.80
2018-02-02T03:23:42.733Z,992.83
2018-02-02T03:24:42.674Z,992.79
2018-02-02T03:26:36.069Z,992.74
2018-02-02T03:27:35.887Z,992.80
2018-02-02T03:29:28.845Z,992.83
2018-02-02T03:30:28.795Z,992.79
2018-02-02T03:32:21.754Z,992.77
2018-02-02T03:33:21.689Z,992.80
2018-02-02T03:35:14.920Z,992.82
2018-02-02T03:36:14.839Z,992.84
2018-02-02T03:38:07.808Z,992.75
2018-02-02T03:39:07.752Z,992.78
2018-02-02T03:41:00.714Z,992.79
2018-02-02T03:42:00.653Z,992.85
2018-02-02T03:43:53.529Z,992.84
2018-02-02T03:44:53.500Z,992.83
2018-02-02T03:46:46.448Z,992.94
2018-02-02T03:47:46.388Z,992.86
2018-02-02T03:49:39.345Z,992.88
2018-02-02T03:50:39.311Z,992.83
2018-02-02T03:52:32.113Z,992.82
2018-02-02T03:53:32.058Z,992.77
2018-02-02T03:55:25.210Z,992.80
2018-02-02T03:56:25.150Z,992.82
2018-02-02T03:58:18.133Z,992.86
2018-02-02T03:59:18.050Z,992.88
2018-02-02T04:01:11.074Z,992.91
2018-02-02T04:02:10.958Z,992.79
2018-02-02T04:04:03.778Z,992.82
2018-02-02T04:05:03.720Z,992.80
2018-02-02T04:06:56.684Z,992.79
2018-02-02T04:07:56.645Z,992.80
2018-02-02T04:09:49.590Z,992.82
2018-02-02T04:10:49.539Z,992.86
2018-02-02T04:12:42.490Z,992.90
2018-02-02T04:13:42.459Z,992.86
2018-02-02T04:15:35.526Z,992.89
2018-02-02T04:16:35.368Z,992.90
2018-02-02T04:18:28.304Z,992.87
2018-02-02T04:19:28.265Z,992.92
2018-02-02T04:21:21.240Z,992.89
2018-02-02T04:22:21.179Z,992.98
2018-02-02T04:24:14.473Z,992.88
2018-02-02T04:25:14.303Z,992.92
2018-02-02T04:27:07.263Z,992.89
2018-02-02T04:28:07.225Z,992.96
2018-02-02T04:30:00.027Z,992.94
2018-02-02T04:30:59.970Z,992.96
2018-02-02T04:32:52.785Z,992.95
2018-02-02T04:33:52.733Z,992.95
2018-02-02T04:35:45.948Z,993.01
2018-02-02T04:36:45.823Z,993.02
2018-02-02T04:38:38.769Z,993.05
2018-02-02T04:39:38.724Z,993.01
2018-02-02T04:41:31.690Z,993.06
2018-02-02T04:42:31.630Z,993.04
2018-02-02T04:44:24.470Z,993.04
2018-02-02T04:45:24.410Z,993.00
2018-02-02T04:47:17.194Z,993.04
2018-02-02T04:48:17.146Z,993.02
2018-02-02T04:50:10.112Z,993.04
2018-02-02T04:51:10.058Z,993.05
2018-02-02T04:53:03.009Z,993.09
2018-02-02T04:54:02.973Z,993.02
2018-02-02T04:55:55.921Z,993.04
2018-02-02T04:56:55.876Z,993.02
2018-02-02T04:58:48.757Z,993.04
2018-02-02T04:59:48.668Z,993.01
2018-02-02T05:01:41.628Z,993.01
2018-02-02T05:02:41.578Z,992.95
2018-02-02T05:04:34.543Z,993.02
2018-02-02T05:05:34.478Z,993.01
2018-02-02T05:07:27.457Z,993.01
2018-02-02T05:08:27.386Z,993.01
2018-02-02T05:10:20.362Z,993.05
2018-02-02T05:11:20.157Z,993.05
2018-02-02T05:13:13.129Z,993.03
2018-02-02T05:14:13.079Z,993.05
2018-02-02T05:16:06.023Z,993.07
2018-02-02T05:17:05.980Z,993.10
2018-02-02T05:18:59.245Z,993.15
2018-02-02T05:19:59.088Z,993.14
2018-02-02T05:21:51.880Z,993.19
2018-02-02T05:22:51.840Z,993.16
2018-02-02T05:24:44.656Z,993.21
2018-02-02T05:25:44.602Z,993.21
2018-02-02T05:27:37.568Z,993.20
2018-02-02T05:28:37.529Z,993.22
2018-02-02T05:30:30.666Z,993.27
2018-02-02T05:31:30.622Z,993.30
2018-02-02T05:33:23.599Z,993.26
2018-02-02T05:34:23.542Z,993.30
2018-02-02T05:36:16.486Z,993.23
2018-02-02T05:37:16.446Z,993.29
2018-02-02T05:39:09.370Z,993.26
2018-02-02T05:40:09.304Z,993.25
2018-02-02T05:42:02.267Z,993.26
2018-02-02T05:43:02.218Z,993.23
2018-02-02T05:44:55.174Z,993.21
2018-02-02T05:45:55.118Z,993.20
2018-02-02T05:47:48.298Z,993.16
2018-02-02T05:48:48.202Z,993.16
2018-02-02T05:50:41.161Z,993.15
2018-02-02T05:51:41.109Z,993.14
2018-02-02T05:53:34.048Z,993.10
2018-02-02T05:54:34.067Z,993.07
2018-02-02T05:56:27.248Z,993.01
2018-02-02T05:57:27.148Z,993.00
2018-02-02T05:59:20.090Z,992.94
2018-02-02T06:00:20.048Z,992.90
2018-02-02T06:02:13.019Z,992.90
2018-02-02T06:03:12.974Z,992.89
2018-02-02T06:05:06.137Z,992.92
2018-02-02T06:06:06.075Z,992.90
2018-02-02T06:07:59.040Z,992.94
2018-02-02T06:08:58.992Z,992.97
2018-02-02T06:10:51.957Z,992.97
2018-02-02T06:11:51.883Z,992.98
2018-02-02T06:13:44.772Z,992.96
2018-02-02T06:14:44.732Z,992.98
2018-02-02T06:16:37.712Z,993.01
2018-02-02T06:17:37.658Z,993.00
2018-02-02T06:19:30.605Z,992.98
2018-02-02T06:20:30.562Z,993.05
2018-02-02T06:22:23.802Z,992.98
2018-02-02T06:23:23.646Z,992.98
2018-02-02T06:25:16.592Z,993.02
2018-02-02T06:26:16.553Z,993.03
2018-02-02T06:28:09.510Z,992.98
2018-02-02T06:29:09.455Z,993.01
2018-02-02T06:31:02.587Z,992.97
2018-02-02T06:32:02.543Z,992.98
2018-02-02T06:33:55.512Z,993.04
2018-02-02T06:34:55.458Z,993.01
2018-02-02T06:36:48.258Z,993.00
2018-02-02T06:37:48.208Z,993.04
2018-02-02T06:39:41.177Z,993.05
2018-02-02T06:40:41.118Z,993.03
2018-02-02T06:42:34.104Z,993.03
2018-02-02T06:43:33.929Z,993.05
2018-02-02T06:45:26.953Z,993.05
2018-02-02T06:46:26.895Z,993.05
2018-02-02T06:48:19.868Z,993.06
2018-02-02T06:49:19.884Z,993.04
2018-02-02T06:51:12.949Z,993.09
2018-02-02T06:52:12.894Z,993.09
2018-02-02T06:54:05.877Z,993.01
2018-02-02T06:55:05.807Z,993.05
2018-02-02T06:56:58.852Z,993.04
2018-02-02T06:57:58.817Z,993.02
2018-02-02T06:59:51.628Z,993.07
2018-02-02T07:00:51.591Z,993.06
2018-02-02T07:02:44.526Z,993.02
2018-02-02T07:03:44.488Z,993.02
2018-02-02T07:05:37.596Z,993.05
2018-02-02T07:06:37.564Z,993.05
2018-02-02T07:08:30.571Z,993.10
2018-02-02T07:09:30.500Z,993.07
2018-02-02T07:11:23.479Z,993.02
2018-02-02T07:12:23.429Z,993.04
2018-02-02T07:14:16.380Z,993.02
2018-02-02T07:15:16.382Z,993.07
2018-02-02T07:17:09.553Z,993.10
2018-02-02T07:18:09.429Z,993.05
2018-02-02T07:20:02.375Z,993.04
2018-02-02T07:21:02.327Z,993.05
2018-02-02T07:22:55.307Z,993.02
2018-02-02T07:23:55.271Z,993.01
2018-02-02T07:25:48.438Z,993.00
2018-02-02T07:26:48.322Z,993.01
2018-02-02T07:28:41.257Z,993.01
2018-02-02T07:29:41.233Z,992.97
2018-02-02T07:31:34.187Z,993.05
2018-02-02T07:32:34.142Z,992.95
2018-02-02T07:34:27.334Z,992.96
2018-02-02T07:35:27.227Z,992.95
2018-02-02T07:37:20.207Z,992.97
2018-02-02T07:38:20.145Z,992.95
2018-02-02T07:40:13.089Z,992.99
2018-02-02T07:41:13.045Z,993.04
2018-02-02T07:43:06.173Z,992.95
2018-02-02T07:44:06.118Z,992.94
2018-02-02T07:45:58.955Z,993.01
2018-02-02T07:46:58.917Z,993.00
2018-02-02T07:48:51.725Z,992.97
2018-02-02T07:49:51.674Z,993.01
2018-02-02T07:51:44.662Z,992.98
2018-02-02T07:52:44.587Z,993.00
2018-02-02T07:54:37.556Z,993.03
2018-02-02T07:55:37.424Z,992.98
2018-02-02T07:57:30.355Z,993.01
2018-02-02T07:58:30.313Z,993.03
2018-02-02T08:00:23.273Z,993.05
2018-02-02T08:01:23.204Z,993.02
2018-02-02T08:03:16.464Z,993.04
2018-02-02T08:04:16.275Z,993.03
2018-02-02T08:06:09.208Z,993.03
2018-02-02T08:07:09.168Z,993.00
2018-02-02T08:09:02.140Z,993.01
2018-02-02T08:10:02.207Z,993.00
2018-02-02T08:11:54.879Z,993.02
2018-02-02T08:12:54.834Z,993.01
2018-02-02T08:14:47.798Z,993.00
2018-02-02T08:15:47.734Z,993.06
2018-02-02T08:17:40.687Z,993.06
2018-02-02T08:18:40.638Z,993.04
2018-02-02T08:20:33.460Z,993.04
2018-02-02T08:21:33.389Z,993.05
2018-02-02T08:23:26.340Z,993.06
2018-02-02T08:24:26.295Z,993.06
2018-02-02T08:26:19.109Z,993.04
2018-02-02T08:27:19.060Z,993.06
2018-02-02T08:29:12.132Z,993.09
2018-02-02T08:30:11.895Z,993.08
2018-02-02T08:32:04.737Z,993.07
2018-02-02T08:33:04.698Z,993.06
2018-02-02T08:34:57.672Z,993.05
2018-02-02T08:35:57.749Z,993.06
2018-02-02T08:37:50.582Z,993.09
2018-02-02T08:38:50.528Z,993.12
2018-02-02T08:40:43.378Z,993.06
2018-02-02T08:41:43.284Z,993.07
2018-02-02T08:43:36.244Z,993.11
2018-02-02T08:44:36.198Z,993.12
2018-02-02T08:46:29.170Z,993.16
2018-02-02T08:47:29.123Z,993.15
2018-02-02T08:49:22.269Z,993.19
2018-02-02T08:50:22.230Z,993.20
2018-02-02T08:52:15.178Z,993.23
2018-02-02T08:53:15.124Z,993.19
2018-02-02T08:55:08.115Z,993.16
2018-02-02T08:56:08.046Z,993.19
2018-02-02T08:58:01.334Z,993.26
2018-02-02T08:59:01.271Z,993.24
2018-02-02T09:00:54.086Z,993.25
2018-02-02T09:01:54.032Z,993.24
2018-02-02T09:03:47.486Z,993.26
2018-02-02T09:04:46.949Z,993.26
2018-02-02T09:06:40.155Z,993.24
2018-02-02T09:07:40.028Z,993.24
2018-02-02T09:09:32.997Z,993.25
2018-02-02T09:10:32.949Z,993.27
2018-02-02T09:12:25.760Z,993.23
2018-02-02T09:13:25.786Z,993.21
2018-02-02T09:15:18.833Z,993.24
2018-02-02T09:16:18.789Z,993.24
2018-02-02T09:18:11.745Z,993.27
2018-02-02T09:19:11.698Z,993.26
2018-02-02T09:21:04.653Z,993.30
2018-02-02T09:22:04.619Z,993.33
2018-02-02T09:23:57.854Z,993.33
2018-02-02T09:24:57.731Z,993.31
2018-02-02T09:26:50.673Z,993.31
2018-02-02T09:27:50.645Z,993.28
2018-02-02T09:29:43.623Z,993.32
2018-02-02T09:30:43.561Z,993.35
2018-02-02T09:32:36.674Z,993.33
2018-02-02T09:33:36.616Z,993.35
2018-02-02T09:35:29.590Z,993.40
2018-02-02T09:36:29.536Z,993.40
2018-02-02T09:38:22.554Z,993.41
2018-02-02T09:39:22.478Z,993.39
2018-02-02T09:41:15.390Z,993.38
2018-02-02T09:42:15.359Z,993.42
2018-02-02T09:44:08.294Z,993.46
2018-02-02T09:45:08.246Z,993.43
2018-02-02T09:47:01.196Z,993.41
2018-02-02T09:48:01.148Z,993.40
2018-02-02T09:49:54.396Z,993.48
2018-02-02T09:50:54.239Z,993.48
2018-02-02T09:52:47.169Z,993.54
2018-02-02T09:53:47.137Z,993.53
2018-02-02T09:55:40.180Z,993.61
2018-02-02T09:56:40.091Z,993.52
2018-02-02T09:58:33.275Z,993.58
2018-02-02T09:59:33.199Z,993.61
2018-02-02T10:01:26.144Z,993.62
2018-02-02T10:02:26.105Z,993.63
2018-02-02T10:04:19.038Z,993.66
2018-02-02T10:05:18.996Z,993.66
2018-02-02T10:07:11.969Z,993.67
2018-02-02T10:08:11.880Z,993.61
2018-02-02T10:10:04.878Z,993.64
2018-02-02T10:11:04.836Z,993.65
2018-02-02T10:12:57.644Z,993.66
2018-02-02T10:13:57.574Z,993.68
2018-02-02T10:15:50.519Z,993.73
2018-02-02T10:16:50.489Z,993.73
2018-02-02T10:18:43.320Z,993.71
2018-02-02T10:19:43.250Z,993.72
2018-02-02T10:21:36.045Z,993.73
2018-02-02T10:22:35.990Z,993.73
2018-02-02T10:24:29.037Z,993.78
2018-02-02T10:25:28.938Z,993.73
2018-02-02T10:27:21.901Z,993.75
2018-02-02T10:28:21.838Z,993.75
2018-02-02T10:30:14.981Z,993.80
2018-02-02T10:31:14.949Z,993.78
2018-02-02T10:33:07.905Z,993.79
2018-02-02T10:34:07.859Z,993.76
2018-02-02T10:36:00.798Z,993.76
2018-02-02T10:37:00.760Z,993.77
2018-02-02T10:38:53.970Z,993.82
2018-02-02T10:39:53.851Z,993.80
2018-02-02T10:41:46.876Z,993.82
2018-02-02T10:42:46.820Z,993.81
2018-02-02T10:44:39.799Z,993.81
2018-02-02T10:45:39.736Z,993.86
2018-02-02T10:47:32.561Z,993.84
2018-02-02T10:48:32.519Z,993.86
2018-02-02T10:50:25.559Z,993.85
2018-02-02T10:51:25.491Z,993.84
2018-02-02T10:53:18.440Z,993.88
2018-02-02T10:54:18.461Z,993.86
2018-02-02T10:56:11.675Z,993.92
2018-02-02T10:57:11.501Z,993.91
2018-02-02T10:59:04.606Z,993.89
2018-02-02T11:00:04.508Z,993.85
2018-02-02T11:01:57.329Z,993.92
2018-02-02T11:02:57.278Z,993.91
2018-02-02T11:04:50.551Z,993.89
2018-02-02T11:05:50.356Z,993.91
2018-02-02T11:07:43.347Z,993.93
2018-02-02T11:08:43.301Z,994.01
2018-02-02T11:10:36.252Z,993.97
2018-02-02T11:11:36.199Z,993.98
2018-02-02T11:13:29.365Z,994.05
2018-02-02T11:14:29.286Z,994.11
2018-02-02T11:16:22.253Z,994.02
2018-02-02T11:17:22.194Z,994.00
2018-02-02T11:19:15.172Z,993.97
2018-02-02T11:20:15.135Z,993.97
2018-02-02T11:22:08.182Z,993.96
2018-02-02T11:23:08.002Z,993.98
2018-02-02T11:25:00.852Z,993.95
2018-02-02T11:26:00.766Z,993.97
2018-02-02T11:27:53.921Z,993.95
2018-02-02T11:28:53.855Z,993.98
2018-02-02T11:30:47.021Z,993.97
2018-02-02T11:31:46.966Z,994.01
2018-02-02T11:33:39.942Z,993.94
2018-02-02T11:34:39.894Z,993.96
2018-02-02T11:36:32.830Z,993.91
2018-02-02T11:37:32.805Z,993.93
2018-02-02T11:39:25.606Z,993.95
2018-02-02T11:40:25.580Z,993.95
2018-02-02T11:42:18.539Z,993.92
2018-02-02T11:43:18.383Z,993.95
2018-02-02T11:45:11.388Z,993.91
2018-02-02T11:46:11.328Z,993.92
2018-02-02T11:48:04.293Z,993.93
2018-02-02T11:49:04.374Z,993.90
2018-02-02T11:50:57.385Z,993.87
2018-02-02T11:51:57.329Z,993.93
2018-02-02T11:53:50.280Z,993.94
2018-02-02T11:54:50.228Z,993.92
2018-02-02T11:56:43.196Z,993.94
2018-02-02T11:57:43.138Z,993.93
2018-02-02T11:59:36.086Z,993.92
2018-02-02T12:00:36.031Z,993.92
2018-02-02T12:02:28.900Z,993.91
2018-02-02T12:03:28.794Z,993.93
2018-02-02T12:05:21.745Z,994.01
2018-02-02T12:06:21.705Z,993.95
2018-02-02T12:08:14.686Z,994.02
2018-02-02T12:09:14.642Z,994.02
2018-02-02T12:11:07.552Z,994.12
2018-02-02T12:12:07.504Z,994.06
2018-02-02T12:14:00.517Z,993.98
2018-02-02T12:15:00.422Z,994.00
2018-02-02T12:16:53.421Z,994.07
2018-02-02T12:17:53.374Z,994.07
2018-02-02T12:19:46.561Z,994.07
2018-02-02T12:20:46.470Z,994.06
2018-02-02T12:22:39.467Z,994.05
2018-02-02T12:23:39.388Z,994.06
2018-02-02T12:25:32.423Z,994.04
2018-02-02T12:26:32.298Z,994.04
2018-02-02T12:28:25.525Z,994.04
2018-02-02T12:29:25.389Z,994.23
2018-02-02T12:31:18.366Z,994.15
2018-02-02T12:32:18.302Z,994.14
2018-02-02T12:34:11.274Z,994.16
2018-02-02T12:35:11.220Z,994.15
2018-02-02T12:37:04.050Z,994.12
2018-02-02T12:38:04.031Z,994.06
2018-02-02T12:39:57.043Z,994.11
2018-02-02T12:40:56.940Z,994.11
2018-02-02T12:42:49.828Z,994.16
2018-02-02T12:43:49.777Z,994.23
2018-02-02T12:45:42.747Z,994.27
2018-02-02T12:46:42.698Z,994.25
2018-02-02T12:48:35.805Z,994.29
2018-02-02T12:49:35.755Z,994.32
2018-02-02T12:51:28.740Z,994.34
2018-02-02T12:52:28.665Z,994.32
2018-02-02T12:54:21.680Z,994.37
2018-02-02T12:55:21.627Z,994.38
2018-02-02T12:57:14.540Z,994.38
2018-02-02T12:58:14.448Z,994.36
2018-02-02T13:00:07.392Z,994.38
2018-02-02T13:01:07.355Z,994.39
2018-02-02T13:03:00.340Z,994.42
2018-02-02T13:04:00.291Z,994.43
2018-02-02T13:05:53.115Z,994.44
2018-02-02T13:06:53.055Z,994.41
2018-02-02T13:08:45.905Z,994.37
2018-02-02T13:09:45.897Z,994.36
2018-02-02T13:11:38.905Z,994.37
2018-02-02T13:12:38.845Z,994.37
2018-02-02T13:14:31.861Z,994.39
2018-02-02T13:15:31.815Z,994.42
2018-02-02T13:17:25.033Z,994.40
2018-02-02T13:18:24.942Z,994.45
2018-02-02T13:20:17.877Z,994.45
2018-02-02T13:21:17.848Z,994.51
2018-02-02T13:23:10.851Z,994.50
2018-02-02T13:24:10.757Z,994.52
2018-02-02T13:26:03.870Z,994.50
2018-02-02T13:27:03.812Z,994.53
2018-02-02T13:28:56.792Z,994.55
2018-02-02T13:29:56.716Z,994.59
2018-02-02T13:31:49.529Z,994.60
2018-02-02T13:32:49.557Z,994.57
2018-02-02T13:34:42.630Z,994.59
2018-02-02T13:35:42.545Z,994.55
2018-02-02T13:37:35.527Z,994.50
2018-02-02T13:38:35.446Z,994.54
2018-02-02T13:40:28.410Z,994.49
2018-02-02T13:41:28.363Z,994.49
2018-02-02T13:43:21.171Z,994.51
2018-02-02T13:44:21.117Z,994.53
2018-02-02T13:46:14.187Z,994.45
2018-02-02T13:47:14.126Z,994.44
2018-02-02T13:49:06.946Z,994.52
2018-02-02T13:50:06.891Z,994.49
2018-02-02T13:51:59.873Z,994.55
2018-02-02T13:52:59.825Z,994.52
2018-02-02T13:54:52.963Z,994.60
2018-02-02T13:55:52.918Z,994.61
2018-02-02T13:57:45.930Z,994.63
2018-02-02T13:58:45.861Z,994.67
2018-02-02T14:00:39.676Z,994.72
2018-02-02T14:01:39.617Z,994.73
2018-02-02T14:03:32.776Z,994.71
2018-02-02T14:04:32.727Z,994.70
2018-02-02T14:06:25.727Z,994.74
2018-02-02T14:07:25.689Z,994.77
2018-02-02T14:09:18.628Z,994.75
2018-02-02T14:10:18.598Z,994.78
2018-02-02T14:12:11.428Z,994.77
2018-02-02T14:13:11.440Z,994.77
2018-02-02T14:15:04.401Z,994.77
2018-02-02T14:16:04.311Z,994.80
2018-02-02T14:17:57.283Z,994.76
2018-02-02T14:18:57.246Z,994.84
2018-02-02T14:20:50.247Z,994.84
2018-02-02T14:21:50.197Z,994.87
2018-02-02T14:23:43.242Z,994.91
2018-02-02T14:24:43.172Z,994.89
2018-02-02T14:26:36.019Z,994.95
2018-02-02T14:27:35.921Z,995.01
2018-02-02T14:29:28.887Z,995.06
2018-02-02T14:30:28.852Z,995.06
2018-02-02T14:32:22.025Z,995.16
2018-02-02T14:33:21.978Z,995.10
2018-02-02T14:35:14.915Z,995.16
2018-02-02T14:36:14.846Z,995.19
2018-02-02T14:38:07.819Z,995.21
2018-02-02T14:39:07.757Z,995.21
2018-02-02T14:41:00.937Z,995.23
2018-02-02T14:42:00.864Z,995.23
2018-02-02T14:43:53.803Z,995.32
2018-02-02T14:44:53.768Z,995.33
2018-02-02T14:46:46.721Z,995.34
2018-02-02T14:47:46.669Z,995.33
2018-02-02T14:49:39.605Z,995.37
2018-02-02T14:50:39.546Z,995.39
2018-02-02T14:52:32.568Z,995.44
2018-02-02T14:53:32.514Z,995.44
2018-02-02T14:55:25.487Z,995.48
2018-02-02T14:56:25.406Z,995.52
2018-02-02T14:58:18.617Z,995.58
2018-02-02T14:59:18.496Z,995.57
2018-02-02T15:01:11.514Z,995.61
2018-02-02T15:02:11.426Z,995.59
2018-02-02T15:04:04.422Z,995.62
2018-02-02T15:05:04.298Z,995.62
2018-02-02T15:06:57.470Z,995.61
2018-02-02T15:07:57.400Z,995.62
2018-02-02T15:09:50.383Z,995.64
2018-02-02T15:10:50.362Z,995.71
2018-02-02T15:12:43.128Z,995.70
2018-02-02T15:13:43.096Z,995.67
2018-02-02T15:15:36.354Z,995.65
2018-02-02T15:16:36.222Z,995.67
2018-02-02T15:18:29.023Z,995.68
2018-02-02T15:19:28.976Z,995.70
2018-02-02T15:21:21.957Z,995.68
2018-02-02T15:22:21.909Z,995.68
2018-02-02T15:24:14.901Z,995.67
2018-02-02T15:25:14.809Z,995.67
2018-02-02T15:27:07.812Z,995.69
2018-02-02T15:28:07.661Z,995.70
2018-02-02T15:30:00.616Z,995.70
2018-02-02T15:31:00.556Z,995.71
2018-02-02T15:32:53.535Z,995.72
2018-02-02T15:33:53.519Z,995.77
2018-02-02T15:35:46.908Z,995.82
2018-02-02T15:36:46.597Z,995.79
2018-02-02T15:38:39.543Z,995.88
2018-02-02T15:39:39.517Z,995.87
2018-02-02T15:41:32.511Z,995.87
2018-02-02T15:42:32.428Z,995.84
2018-02-02T15:44:25.467Z,995.88
2018-02-02T15:45:25.339Z,995.86
2018-02-02T15:47:18.345Z,995.86
2018-02-02T15:48:18.242Z,995.87
2018-02-02T15:50:11.259Z,995.88
2018-02-02T15:51:11.175Z,995.86
2018-02-02T15:53:04.371Z,995.90
2018-02-02T15:54:04.256Z,995.91
2018-02-02T15:55:57.229Z,995.96
2018-02-02T15:56:57.157Z,995.98
2018-02-02T15:58:50.118Z,996.02
2018-02-02T15:59:50.064Z,996.00
2018-02-02T16:01:43.259Z,996.04
2018-02-02T16:02:43.153Z,996.09
2018-02-02T16:04:35.952Z,996.05
2018-02-02T16:05:35.921Z,996.05
2018-02-02T16:07:28.865Z,996.02
2018-02-02T16:08:28.818Z,996.00
2018-02-02T16:10:22.003Z,996.06
2018-02-02T16:11:21.933Z,996.03
2018-02-02T16:13:14.928Z,996.03
2018-02-02T16:14:14.854Z,996.09
2018-02-02T16:16:07.804Z,996.10
2018-02-02T16:17:07.791Z,996.10
2018-02-02T16:19:00.997Z,996.18
2018-02-02T16:20:00.829Z,996.16
2018-02-02T16:21:53.623Z,996.25
2018-02-02T16:22:53.604Z,996.25
2018-02-02T16:24:46.564Z,996.24
2018-02-02T16:25:46.499Z,996.23
2018-02-02T16:27:39.442Z,996.25
2018-02-02T16:28:39.404Z,996.24
2018-02-02T16:30:32.467Z,996.25
2018-02-02T16:31:32.404Z,996.27
2018-02-02T16:33:25.401Z,996.29
2018-02-02T16:34:25.349Z,996.26
2018-02-02T16:36:18.279Z,996.30
2018-02-02T16:37:18.247Z,996.33
2018-02-02T16:39:11.284Z,996.33
2018-02-02T16:40:11.099Z,996.36
2018-02-02T16:42:03.906Z,996.38
2018-02-02T16:43:03.877Z,996.41
2018-02-02T16:44:56.877Z,996.45
2018-02-02T16:45:56.776Z,996.45
2018-02-02T16:47:49.759Z,996.50
2018-02-02T16:48:49.730Z,996.54
2018-02-02T16:50:42.622Z,996.57
2018-02-02T16:51:42.551Z,996.55
2018-02-02T16:53:35.882Z,996.61
2018-02-02T16:54:35.819Z,996.62
2018-02-02T16:56:29.019Z,996.62
2018-02-02T16:57:28.918Z,996.67
2018-02-02T16:59:21.873Z,996.71
2018-02-02T17:00:21.848Z,996.70
2018-02-02T17:02:14.818Z,996.68
2018-02-02T17:03:14.749Z,996.72
2018-02-02T17:05:07.842Z,996.74
2018-02-02T17:06:07.787Z,996.75
2018-02-02T17:08:00.605Z,996.82
2018-02-02T17:09:00.547Z,996.78
2018-02-02T17:10:53.496Z,996.82
2018-02-02T17:11:53.464Z,996.80
2018-02-02T17:13:46.529Z,996.80
2018-02-02T17:14:46.454Z,996.81
2018-02-02T17:16:39.582Z,996.82
2018-02-02T17:17:39.526Z,996.80
2018-02-02T17:19:32.497Z,996.85
2018-02-02T17:20:32.442Z,996.81
2018-02-02T17:22:25.413Z,996.90
2018-02-02T17:23:25.312Z,996.92
2018-02-02T17:25:18.234Z,996.92
2018-02-02T17:26:18.191Z,996.95
2018-02-02T17:28:11.158Z,996.99
2018-02-02T17:29:11.233Z,997.01
2018-02-02T17:31:04.055Z,997.02
2018-02-02T17:32:04.037Z,997.05
2018-02-02T17:33:56.879Z,997.07
2018-02-02T17:34:56.790Z,997.10
2018-02-02T17:36:49.770Z,997.13
2018-02-02T17:37:49.743Z,997.16
2018-02-02T17:39:42.813Z,997.16
2018-02-02T17:40:42.768Z,997.19
2018-02-02T17:42:35.911Z,997.18
2018-02-02T17:43:35.832Z,997.21
2018-02-02T17:45:28.768Z,997.21
2018-02-02T17:46:28.723Z,997.17
2018-02-02T17:48:21.687Z,997.18
2018-02-02T17:49:21.640Z,997.20
2018-02-02T17:51:14.462Z,997.23
2018-02-02T17:52:14.411Z,997.25
2018-02-02T17:54:07.212Z,997.26
2018-02-02T17:55:07.156Z,997.25
2018-02-02T17:57:00.113Z,997.30
2018-02-02T17:58:00.082Z,997.31